logo
Rechercher aéroport 
image banner adimage banner adimage banner ad
image banner ad

CA33 - County Medical Center

Situé à San Jose, United States

ICAO - CA33, IATA -

Données fournies par Airmate  

Information générale

Coordonnées: N37°18'48" W121°56'4"
Élévation : 148 feet MSL.
Variation magnétique : 16° East
Voir autres Aéroports à California

Données opérationnelles

Special qualification required
Heure actuelle UTC:
Heure actuelle locale:
METAR: KSJC 281153Z AUTO 32003KT 10SM CLR 14/12 A2999 RMK AO2 SLP156 T01440122 10167 20144 58007
TAF: KSJC 281140Z 2812/2912 00000KT P6SM FEW012 SCT250 TEMPO 2813/2817 BKN012 FM281700 33005KT P6SM FEW015 SCT250 FM282100 30011KT P6SM SCT250 FM290400 33007KT P6SM FEW020 FEW250 FM290900 34004KT P6SM BKN015
Voir NOTAMs / SUP AIP / TFR affectant cet aéroport [VIEW]
Fréquences de communication: [VIEW]

Pistes:

Coordonnées de l'aéroport

Adresse: San Jose United States

Vue satellite de CA33